Time;durP1;ratioP1;P1;durP2;ratioP2;P2;SDS_P1;SDS_P2;PMS_P1;PMS_P2;Temp;Humidity;BMP_temperature;BMP_pressure;BME280_temperature;BME280_humidity;BME280_pressure;Samples;Min_cycle;Max_cycle;Signal;HPM_P1;HPM_P2
2022/06/12 00:00:59;;;;;;;17.67;6.10;;;14.20;99.90;;;;;;5054103;28;20056;-71
2022/06/12 00:03:26;;;;;;;13.43;5.82;;;14.20;99.90;;;;;;5054141;28;20033;-69
2022/06/12 00:05:54;;;;;;;17.70;5.97;;;14.20;99.90;;;;;;5037074;28;20084;-70
2022/06/12 00:08:21;;;;;;;20.08;5.97;;;14.20;99.90;;;;;;5036862;28;20053;-70
2022/06/12 00:10:50;;;;;;;23.23;6.57;;;14.20;99.90;;;;;;5054349;28;20426;-71
2022/06/12 00:13:19;;;;;;;15.55;5.57;;;14.20;99.90;;;;;;5054354;28;20045;-69
2022/06/12 00:15:45;;;;;;;20.67;7.05;;;14.20;99.90;;;;;;5053427;28;20068;-71
2022/06/12 00:18:11;;;;;;;16.70;6.43;;;14.20;99.90;;;;;;5053684;28;20049;-69
2022/06/12 00:20:38;;;;;;;17.00;5.57;;;14.10;99.90;;;;;;5054511;28;20056;-69
2022/06/12 00:23:10;;;;;;;18.50;6.70;;;14.20;99.90;;;;;;5053758;28;20041;-69
2022/06/12 00:25:37;;;;;;;23.95;7.10;;;14.10;99.90;;;;;;5054301;28;20049;-68
2022/06/12 00:28:05;;;;;;;25.30;6.03;;;14.20;99.90;;;;;;5054471;28;20049;-70
2022/06/12 00:30:31;;;;;;;19.02;5.85;;;14.10;99.90;;;;;;5054001;28;20049;-69
2022/06/12 00:32:57;;;;;;;20.25;6.38;;;14.10;99.90;;;;;;5054111;28;20064;-69
2022/06/12 00:35:28;;;;;;;19.10;5.70;;;14.10;99.90;;;;;;5054226;28;20443;-70
2022/06/12 00:37:54;;;;;;;22.95;6.03;;;14.10;99.90;;;;;;5056095;28;20036;-68
2022/06/12 00:40:21;;;;;;;16.75;5.25;;;14.10;99.90;;;;;;5057823;28;20060;-70
2022/06/12 00:42:51;;;;;;;21.25;7.00;;;14.00;99.90;;;;;;5058196;28;20137;-71
2022/06/12 00:45:34;;;;;;;18.48;6.05;;;14.00;99.90;;;;;;5057891;28;20151;-69
2022/06/12 00:48:04;;;;;;;18.95;5.88;;;14.00;99.90;;;;;;5037923;28;20107;-69
2022/06/12 00:50:30;;;;;;;22.85;6.13;;;14.00;99.90;;;;;;5057145;28;20041;-70
2022/06/12 00:52:58;;;;;;;29.90;6.85;;;13.90;99.90;;;;;;5057857;28;20045;-71
2022/06/12 00:55:45;;;;;;;21.60;5.10;;;13.90;99.90;;;;;;5057816;28;20087;-70
2022/06/12 00:58:16;;;;;;;18.65;5.38;;;13.90;99.90;;;;;;5057565;28;20045;-70
2022/06/12 01:00:42;;;;;;;20.35;6.00;;;13.90;99.90;;;;;;5057665;28;20098;-71
2022/06/12 01:03:08;;;;;;;17.65;6.15;;;13.80;99.90;;;;;;5057128;28;20467;-71
2022/06/12 01:08:19;;;;;;;15.25;5.20;;;13.90;99.90;;;;;;5057163;28;20045;-70
2022/06/12 01:10:48;;;;;;;19.83;5.53;;;13.80;99.90;;;;;;5057275;28;20044;-69
2022/06/12 01:13:21;;;;;;;18.13;5.22;;;13.80;99.90;;;;;;5057353;28;20174;-70
2022/06/12 01:16:01;;;;;;;22.90;6.40;;;13.80;99.90;;;;;;5039718;28;20480;-70
2022/06/12 01:18:33;;;;;;;25.80;5.93;;;13.80;99.90;;;;;;5040016;28;20467;-71
2022/06/12 01:21:17;;;;;;;21.15;6.10;;;13.70;99.90;;;;;;5056288;28;20049;-69
2022/06/12 01:24:09;;;;;;;18.77;5.80;;;13.70;99.90;;;;;;5057176;28;20337;-69
2022/06/12 01:26:52;;;;;;;19.02;5.68;;;13.70;99.90;;;;;;5057094;28;20041;-70
2022/06/12 01:29:33;;;;;;;20.52;6.03;;;13.70;99.90;;;;;;5056806;28;20110;-68
2022/06/12 01:32:17;;;;;;;19.42;6.20;;;13.60;99.90;;;;;;5056985;28;20045;-70
2022/06/12 01:34:50;;;;;;;;;;;13.70;99.90;;;;;;5056760;28;20033;-70
2022/06/12 01:37:56;;;;;;;22.42;6.03;;;13.60;99.90;;;;;;5057232;28;20326;-69
2022/06/12 01:40:36;;;;;;;23.67;6.75;;;13.60;99.90;;;;;;5039609;28;20126;-69
2022/06/12 01:43:30;;;;;;;22.48;6.40;;;13.60;99.90;;;;;;5039784;28;20059;-68
2022/06/12 01:46:08;;;;;;;22.60;5.90;;;13.50;99.90;;;;;;4985350;28;20050;-71
2022/06/12 01:49:01;;;;;;;23.60;6.18;;;13.60;99.90;;;;;;5055366;28;20044;-68
2022/06/12 01:51:30;;;;;;;16.98;5.68;;;13.60;99.90;;;;;;5036148;28;20456;-71
2022/06/12 01:54:29;;;;;;;23.95;6.60;;;13.60;99.90;;;;;;5036875;28;20453;-68
2022/06/12 01:57:02;;;;;;;27.15;7.22;;;13.60;99.90;;;;;;5036680;28;20078;-71
2022/06/12 01:59:43;;;;;;;18.30;6.32;;;13.50;99.90;;;;;;5036432;28;20042;-70
2022/06/12 02:02:35;;;;;;;32.85;7.22;;;13.50;99.90;;;;;;5039681;28;20120;-70
2022/06/12 02:05:17;;;;;;;19.42;5.80;;;13.50;99.90;;;;;;5049771;28;20463;-69
2022/06/12 02:07:57;;;;;;;21.55;6.55;;;13.50;99.90;;;;;;5056415;28;20090;-69
2022/06/12 02:10:34;;;;;;;23.90;6.88;;;13.50;99.90;;;;;;5056059;28;20136;-70
2022/06/12 02:13:34;;;;;;;18.85;6.75;;;13.40;99.90;;;;;;5055025;28;20366;-68
2022/06/12 02:16:05;;;;;;;27.80;7.45;;;13.40;99.90;;;;;;5035775;28;20469;-70
2022/06/12 02:18:43;;;;;;;28.42;7.57;;;13.50;99.90;;;;;;5036301;28;20053;-70
2022/06/12 02:21:22;;;;;;;22.73;7.13;;;13.50;99.90;;;;;;5035995;28;20050;-70
2022/06/12 02:24:02;;;;;;;25.02;8.10;;;13.50;99.90;;;;;;5035857;28;20464;-69
2022/06/12 02:26:45;;;;;;;25.50;7.13;;;13.50;99.90;;;;;;5035990;28;20049;-69
2022/06/12 02:29:17;;;;;;;25.30;7.00;;;13.50;99.90;;;;;;5054977;28;20045;-70
2022/06/12 02:31:46;;;;;;;25.52;7.20;;;13.60;99.90;;;;;;5055517;28;20068;-68
2022/06/12 02:34:22;;;;;;;26.75;7.45;;;13.60;99.90;;;;;;5055831;28;20076;-69
2022/06/12 02:36:52;;;;;;;28.52;7.57;;;13.60;99.90;;;;;;5055741;28;20060;-71
2022/06/12 02:39:26;;;;;;;26.90;7.35;;;13.60;99.90;;;;;;5055926;28;20343;-69
2022/06/12 02:42:21;;;;;;;18.63;6.75;;;13.70;99.90;;;;;;5055069;28;21770;-69
2022/06/12 02:44:55;;;;;;;26.17;8.27;;;13.70;99.90;;;;;;5055505;28;20347;-69
2022/06/12 02:47:25;;;;;;;21.70;6.97;;;13.70;99.90;;;;;;5055604;28;20037;-69
2022/06/12 02:49:52;;;;;;;22.55;7.10;;;13.60;99.90;;;;;;5038037;28;20115;-71
2022/06/12 02:52:33;;;;;;;27.40;8.27;;;13.60;99.90;;;;;;5055566;28;20048;-70
2022/06/12 02:55:25;;;;;;;22.92;7.85;;;13.60;99.90;;;;;;5055622;28;20056;-69
2022/06/12 02:58:07;;;;;;;26.55;7.85;;;13.70;99.90;;;;;;5054484;28;20044;-69
2022/06/12 03:00:51;;;;;;;22.10;7.80;;;13.60;99.90;;;;;;5037775;28;20053;-69
2022/06/12 03:03:39;;;;;;;25.70;7.50;;;13.60;99.90;;;;;;5055492;28;20091;-68
2022/06/12 03:06:06;;;;;;;21.77;6.57;;;13.50;99.90;;;;;;5055411;28;20045;-69
2022/06/12 03:08:37;;;;;;;27.20;7.18;;;13.50;99.90;;;;;;5055309;28;20084;-68
2022/06/12 03:11:18;;;;;;;31.15;7.32;;;13.50;99.90;;;;;;5049912;28;20037;-69
2022/06/12 03:13:45;;;;;;;27.17;7.30;;;13.60;99.90;;;;;;5034921;28;20081;-68
2022/06/12 03:16:24;;;;;;;28.75;7.88;;;13.50;99.90;;;;;;5034875;28;20053;-70
2022/06/12 03:19:06;;;;;;;36.28;7.63;;;13.50;99.90;;;;;;5035007;28;20067;-68
2022/06/12 03:21:46;;;;;;;22.88;7.53;;;13.40;99.90;;;;;;5035074;28;20475;-69
2022/06/12 03:24:24;;;;;;;23.33;7.45;;;13.40;99.90;;;;;;5035129;28;20045;-70
2022/06/12 03:27:21;;;;;;;31.38;8.25;;;13.40;99.90;;;;;;5042425;28;20037;-71
2022/06/12 03:30:08;;;;;;;25.65;7.30;;;13.40;99.90;;;;;;5035038;28;20444;-70
2022/06/12 03:33:01;;;;;;;30.00;8.45;;;13.40;99.90;;;;;;5034912;28;20045;-69
2022/06/12 03:35:29;;;;;;;17.38;6.72;;;13.30;99.90;;;;;;5024492;28;20463;-69
2022/06/12 03:38:10;;;;;;;22.38;7.25;;;13.40;99.90;;;;;;5033804;28;20104;-69
2022/06/12 03:40:44;;;;;;;26.52;7.80;;;13.40;99.90;;;;;;5039091;28;20340;-70
2022/06/12 03:43:12;;;;;;;;;;;13.40;99.90;;;;;;5055285;28;20048;-69
2022/06/12 03:45:43;;;;;;;32.55;8.60;;;13.40;99.90;;;;;;5054704;28;19932;-69
2022/06/12 03:48:26;;;;;;;28.92;7.85;;;13.40;99.90;;;;;;5037241;28;20483;-69
2022/06/12 03:51:16;;;;;;;20.90;6.43;;;13.40;99.90;;;;;;5054357;28;20044;-70
2022/06/12 03:53:59;;;;;;;28.42;7.07;;;13.50;99.90;;;;;;5054489;28;20095;-70
2022/06/12 03:59:32;;;;;;;29.88;7.88;;;13.50;99.90;;;;;;5054236;28;20127;-70
2022/06/12 04:01:59;;;;;;;30.08;8.50;;;13.60;99.90;;;;;;5054514;28;20061;-69
2022/06/12 04:04:29;;;;;;;29.27;8.00;;;13.60;99.90;;;;;;5054738;28;20420;-70
2022/06/12 04:06:57;;;;;;;34.45;8.63;;;13.60;99.90;;;;;;5054655;28;20049;-68
2022/06/12 04:09:26;;;;;;;37.55;8.60;;;13.60;99.90;;;;;;5054075;28;20055;-71
2022/06/12 04:12:07;;;;;;;27.60;8.57;;;13.60;99.90;;;;;;5055735;28;20058;-69
2022/06/12 04:14:40;;;;;;;33.45;8.68;;;13.70;99.90;;;;;;5058364;28;20072;-69
2022/06/12 04:17:06;;;;;;;30.27;8.05;;;13.70;99.90;;;;;;5058731;28;20049;-69
2022/06/12 04:19:59;;;;;;;24.23;8.23;;;13.80;99.90;;;;;;5058546;28;20052;-69
2022/06/12 04:22:22;;;;;;;32.30;8.82;;;13.90;99.90;;;;;;5057788;28;20045;-69
2022/06/12 04:24:56;;;;;;;29.00;8.40;;;13.90;99.90;;;;;;5057475;28;20170;-70
2022/06/12 04:27:24;;;;;;;;;;;13.90;99.90;;;;;;5058822;28;20061;-69
2022/06/12 04:29:54;;;;;;;27.25;8.13;;;13.90;99.90;;;;;;5057483;28;19920;-70
2022/06/12 04:32:22;;;;;;;28.17;8.05;;;13.90;99.90;;;;;;5058038;28;20064;-68
2022/06/12 04:34:48;;;;;;;31.75;9.25;;;14.00;99.90;;;;;;5058054;28;20463;-70
2022/06/12 04:37:18;;;;;;;23.92;7.22;;;13.90;99.90;;;;;;5058264;28;20102;-68
2022/06/12 04:39:45;;;;;;;28.27;7.72;;;14.00;99.90;;;;;;5040446;28;20045;-68
2022/06/12 04:42:14;;;;;;;36.45;8.13;;;14.10;99.90;;;;;;5057941;28;20037;-71
2022/06/12 04:44:40;;;;;;;29.08;8.02;;;14.10;99.90;;;;;;5049633;28;20107;-70
2022/06/12 04:47:07;;;;;;;29.52;8.18;;;14.10;99.90;;;;;;5037783;28;20041;-71
2022/06/12 04:49:35;;;;;;;31.67;9.38;;;14.30;99.90;;;;;;5037728;28;20053;-69
2022/06/12 04:52:04;;;;;;;29.13;8.40;;;14.30;99.90;;;;;;5037611;28;20057;-70
2022/06/12 04:54:30;;;;;;;29.45;8.57;;;14.40;99.90;;;;;;5003977;28;20535;-69
2022/06/12 04:56:56;;;;;;;35.40;8.63;;;14.50;99.90;;;;;;5020538;28;20137;-69
2022/06/12 04:59:22;;;;;;;37.38;9.15;;;14.50;99.90;;;;;;5044411;28;20045;-70
2022/06/12 05:01:48;;;;;;;32.58;9.13;;;14.60;99.90;;;;;;5056159;28;20048;-71
2022/06/12 05:04:15;;;;;;;36.80;9.80;;;14.60;99.90;;;;;;5057452;28;20467;-69
2022/06/12 05:06:43;;;;;;;38.08;10.13;;;14.70;99.90;;;;;;5057365;28;20128;-69
2022/06/12 05:09:10;;;;;;;40.85;9.40;;;14.70;99.90;;;;;;5040110;28;20093;-69
2022/06/12 05:11:36;;;;;;;39.33;10.98;;;14.70;99.90;;;;;;5057501;28;20371;-69
2022/06/12 05:14:02;;;;;;;51.30;13.23;;;14.90;99.90;;;;;;5056344;28;20041;-71
2022/06/12 05:16:34;;;;;;;38.20;10.70;;;14.80;99.90;;;;;;5057111;28;20056;-70
2022/06/12 05:19:02;;;;;;;38.58;9.25;;;15.00;99.90;;;;;;5023381;28;20045;-71
2022/06/12 05:21:30;;;;;;;40.40;10.00;;;15.00;99.90;;;;;;5057352;28;20049;-71
2022/06/12 05:23:57;;;;;;;35.05;11.10;;;15.00;99.90;;;;;;5057027;28;20496;-68
2022/06/12 05:26:23;;;;;;;34.85;10.18;;;15.00;99.90;;;;;;5039393;28;20045;-69
2022/06/12 05:28:50;;;;;;;37.80;11.18;;;15.10;99.90;;;;;;5056197;28;20037;-69
2022/06/12 05:31:16;;;;;;;36.50;10.10;;;15.00;99.90;;;;;;5055717;28;20116;-71
2022/06/12 05:33:43;;;;;;;40.20;10.43;;;15.10;99.90;;;;;;5056544;28;20041;-70
2022/06/12 05:36:13;;;;;;;38.88;11.20;;;15.20;99.90;;;;;;5055407;28;20544;-68
2022/06/12 05:38:39;;;;;;;34.65;10.48;;;15.20;99.90;;;;;;5056665;28;20068;-68
2022/06/12 05:41:05;;;;;;;46.22;12.93;;;15.30;99.90;;;;;;5039379;28;20037;-70
2022/06/12 05:43:31;;;;;;;44.10;11.10;;;15.40;99.90;;;;;;5076641;28;20045;-71
2022/06/12 05:45:57;;;;;;;39.60;10.80;;;15.40;99.90;;;;;;5076888;28;20331;-69
2022/06/12 05:48:23;;;;;;;43.88;11.18;;;15.30;99.90;;;;;;5076631;28;20041;-70
2022/06/12 05:50:52;;;;;;;40.45;11.27;;;15.40;99.90;;;;;;5046926;28;20055;-71
2022/06/12 05:53:19;;;;;;;53.58;12.85;;;15.50;99.90;;;;;;5043388;28;20073;-70
2022/06/12 05:55:45;;;;;;;41.05;12.98;;;15.50;99.90;;;;;;5035773;28;20375;-69
2022/06/12 05:58:12;;;;;;;40.88;11.75;;;15.50;99.90;;;;;;5074246;28;20044;-69
2022/06/12 06:00:38;;;;;;;39.78;12.30;;;15.50;99.90;;;;;;5059005;28;20048;-70
2022/06/12 06:03:04;;;;;;;45.83;11.88;;;15.60;99.90;;;;;;5076561;28;20060;-69
2022/06/12 06:05:30;;;;;;;37.55;10.88;;;15.70;99.90;;;;;;5039058;28;20036;-70
2022/06/12 06:07:56;;;;;;;38.05;10.32;;;15.70;99.90;;;;;;5038948;28;20148;-70
2022/06/12 06:10:25;;;;;;;34.13;9.68;;;15.80;99.90;;;;;;5058654;28;20044;-69
2022/06/12 06:12:52;;;;;;;39.00;9.73;;;15.80;99.90;;;;;;5075906;28;20384;-70
2022/06/12 06:15:19;;;;;;;33.88;9.60;;;15.80;99.90;;;;;;5063590;28;20374;-68
2022/06/12 06:17:45;;;;;;;34.65;11.68;;;15.90;99.90;;;;;;5056248;28;20103;-69
2022/06/12 06:20:18;;;;;;;35.35;10.20;;;16.00;99.90;;;;;;5055122;28;20051;-71
2022/06/12 06:22:44;;;;;;;39.03;9.73;;;16.00;99.90;;;;;;5056296;28;20151;-71
2022/06/12 06:25:10;;;;;;;47.88;10.27;;;16.10;99.90;;;;;;5055989;28;20124;-68
2022/06/12 06:27:36;;;;;;;36.40;9.63;;;16.10;99.90;;;;;;5056174;28;20045;-71
2022/06/12 06:30:04;;;;;;;45.33;12.23;;;16.20;99.90;;;;;;5038650;28;20051;-72
2022/06/12 06:32:29;;;;;;;32.03;9.05;;;16.20;99.90;;;;;;5057000;28;20439;-70
2022/06/12 06:34:55;;;;;;;36.67;9.32;;;16.20;99.90;;;;;;5054478;28;20128;-68
2022/06/12 06:37:21;;;;;;;36.33;10.18;;;16.30;99.90;;;;;;5055702;28;20425;-69
2022/06/12 06:39:46;;;;;;;32.03;9.45;;;16.40;99.90;;;;;;5055285;28;20053;-69
2022/06/12 06:42:12;;;;;;;36.10;9.05;;;16.40;99.90;;;;;;5055504;28;20415;-69
2022/06/12 06:47:22;;;;;;;31.15;8.82;;;16.60;99.90;;;;;;5054434;28;20053;-70
2022/06/12 06:49:48;;;;;;;30.83;9.55;;;16.70;99.90;;;;;;5055577;28;20136;-69
2022/06/12 06:52:14;;;;;;;33.78;9.57;;;16.90;99.90;;;;;;5055491;28;20531;-69
2022/06/12 06:54:40;;;;;;;28.00;7.32;;;16.90;99.90;;;;;;5055416;28;20370;-70
2022/06/12 06:57:07;;;;;;;28.55;7.57;;;17.00;99.90;;;;;;5037743;28;20055;-69
2022/06/12 06:59:33;;;;;;;29.05;6.90;;;17.00;99.90;;;;;;5055602;28;20049;-69
2022/06/12 07:01:58;;;;;;;27.55;7.22;;;17.00;99.90;;;;;;5054847;28;20447;-71
2022/06/12 07:04:24;;;;;;;20.45;5.70;;;17.20;99.90;;;;;;5037374;28;20045;-68
2022/06/12 07:06:50;;;;;;;17.08;5.70;;;17.20;99.90;;;;;;5054617;28;20120;-71
2022/06/12 07:09:15;;;;;;;18.13;5.20;;;17.10;99.90;;;;;;5054004;28;20037;-71
2022/06/12 07:11:41;;;;;;;15.45;4.93;;;17.20;99.90;;;;;;5054769;28;20355;-70
2022/06/12 07:14:07;;;;;;;20.83;6.32;;;17.20;99.90;;;;;;5054933;28;20075;-70
2022/06/12 07:16:33;;;;;;;20.45;5.22;;;17.20;99.90;;;;;;5038141;28;20471;-69
2022/06/12 07:18:59;;;;;;;18.50;5.18;;;17.20;99.90;;;;;;5037625;28;20128;-69
2022/06/12 07:21:25;;;;;;;18.20;5.35;;;17.30;99.90;;;;;;5055048;28;20045;-70
2022/06/12 07:23:51;;;;;;;17.60;5.00;;;17.20;99.90;;;;;;5053924;28;20463;-71
2022/06/12 07:26:40;;;;;;;15.07;5.30;;;17.30;99.90;;;;;;5054990;28;20106;-72
2022/06/12 07:29:07;;;;;;;12.65;4.38;;;17.30;99.90;;;;;;5055162;28;20367;-70
2022/06/12 07:31:33;;;;;;;13.70;5.35;;;17.40;99.90;;;;;;5054755;28;20048;-71
2022/06/12 07:34:01;;;;;;;18.60;5.78;;;17.40;99.90;;;;;;5054977;28;20045;-71
2022/06/12 07:36:27;;;;;;;15.23;4.47;;;17.50;99.90;;;;;;5054875;28;20091;-71
2022/06/12 07:38:53;;;;;;;12.10;4.57;;;17.70;99.90;;;;;;5035071;28;20056;-69
2022/06/12 07:41:19;;;;;;;14.43;4.22;;;17.80;99.90;;;;;;5054781;28;20399;-70
2022/06/12 07:43:47;;;;;;;11.05;4.40;;;17.80;99.90;;;;;;5054664;28;20091;-71
2022/06/12 07:46:15;;;;;;;16.80;4.35;;;17.70;99.90;;;;;;5054909;28;20254;-70
2022/06/12 07:48:41;;;;;;;13.02;4.57;;;17.70;99.90;;;;;;5036965;28;20505;-72
2022/06/12 07:51:10;;;;;;;12.10;3.95;;;17.60;99.90;;;;;;5054540;28;20045;-71
2022/06/12 07:53:37;;;;;;;14.85;4.70;;;17.60;99.90;;;;;;5053521;28;20143;-70
2022/06/12 07:56:04;;;;;;;11.38;3.80;;;17.60;99.90;;;;;;5054615;28;20044;-69
2022/06/12 07:58:30;;;;;;;10.57;4.13;;;17.60;99.90;;;;;;5054448;28;20041;-69
2022/06/12 08:00:59;;;;;;;14.68;4.43;;;17.60;99.90;;;;;;5054278;28;20471;-71
2022/06/12 08:03:26;;;;;;;12.60;4.45;;;17.60;99.90;;;;;;5054296;28;20451;-69
2022/06/12 08:05:52;;;;;;;16.17;4.30;;;17.60;99.90;;;;;;5054455;28;20045;-71
2022/06/12 08:08:18;;;;;;;13.52;4.13;;;17.70;99.90;;;;;;5048127;28;20052;-71
2022/06/12 08:10:44;;;;;;;12.50;4.93;;;17.90;99.90;;;;;;5036825;28;20055;-71
2022/06/12 08:13:11;;;;;;;9.43;4.05;;;17.90;99.90;;;;;;5054069;28;20140;-72
2022/06/12 08:15:39;;;;;;;11.00;4.68;;;18.00;99.90;;;;;;5054043;28;20049;-70
2022/06/12 08:18:05;;;;;;;16.83;4.57;;;18.10;99.90;;;;;;5054175;28;20095;-71
2022/06/12 08:20:35;;;;;;;11.60;4.30;;;18.10;99.90;;;;;;5054089;28;20497;-71
2022/06/12 08:23:05;;;;;;;13.45;4.05;;;18.30;99.90;;;;;;5053468;28;20080;-70
2022/06/12 08:25:34;;;;;;;10.27;3.78;;;18.30;99.90;;;;;;5054325;28;20059;-71
2022/06/12 08:28:00;;;;;;;13.45;4.45;;;18.50;99.90;;;;;;5054475;28;20100;-70
2022/06/12 08:30:28;;;;;;;10.63;4.13;;;18.60;99.90;;;;;;5054030;28;20052;-71
2022/06/12 08:32:55;;;;;;;12.50;4.15;;;18.60;99.90;;;;;;5036745;28;20482;-69
2022/06/12 08:35:25;;;;;;;8.65;3.67;;;18.40;99.90;;;;;;5053769;28;20053;-69
2022/06/12 08:37:51;;;;;;;9.57;3.83;;;18.40;99.90;;;;;;5052872;28;20080;-70
2022/06/12 08:40:37;;;;;;;14.82;4.28;;;18.50;99.90;;;;;;5054058;28;20095;-71
2022/06/12 08:43:29;;;;;;;13.80;4.10;;;18.40;99.90;;;;;;5053878;28;20132;-69
2022/06/12 08:45:59;;;;;;;10.18;3.72;;;18.50;99.90;;;;;;5048885;28;20052;-69
2022/06/12 08:48:44;;;;;;;10.82;4.07;;;18.20;99.90;;;;;;5054111;28;20107;-68
2022/06/12 08:51:18;;;;;;;;;;;18.20;99.90;;;;;;5054330;28;20409;-71
2022/06/12 08:54:06;;;;;;;12.00;4.25;;;18.30;99.90;;;;;;5050100;28;19920;-70
2022/06/12 08:56:38;;;;;;;14.93;4.95;;;18.40;99.90;;;;;;5034096;28;20111;-71
2022/06/12 08:59:06;;;;;;;12.60;4.38;;;18.50;99.90;;;;;;5020242;28;20080;-68
2022/06/12 09:01:35;;;;;;;10.77;4.05;;;18.40;99.90;;;;;;5037544;28;20060;-69
2022/06/12 09:04:03;;;;;;;10.07;4.00;;;18.40;99.90;;;;;;5037574;28;20103;-71
2022/06/12 09:07:11;;;;;;;8.07;4.03;;;18.10;99.90;;;;;;5038704;28;20448;-68
2022/06/12 09:10:04;;;;;;;13.15;4.40;;;18.20;99.90;;;;;;5056007;28;20052;-70
2022/06/12 09:12:36;;;;;;;13.23;5.07;;;18.20;99.90;;;;;;5057295;28;20053;-69
2022/06/12 09:15:05;;;;;;;11.73;4.60;;;18.30;99.90;;;;;;5057438;28;20053;-72
2022/06/12 09:17:49;;;;;;;10.88;4.63;;;18.50;99.90;;;;;;5057565;28;20146;-68
2022/06/12 09:20:33;;;;;;;11.38;4.45;;;18.50;99.90;;;;;;5057654;28;20041;-71
2022/06/12 09:23:10;;;;;;;9.02;3.97;;;18.40;99.90;;;;;;5055053;28;20506;-68
2022/06/12 09:25:48;;;;;;;13.23;4.63;;;18.50;99.90;;;;;;5056001;28;20045;-71
2022/06/12 09:28:50;;;;;;;14.07;4.20;;;18.70;99.90;;;;;;5056823;28;20486;-69
2022/06/12 09:31:34;;;;;;;13.43;4.43;;;18.70;99.90;;;;;;5056920;28;20056;-69
2022/06/12 09:34:22;;;;;;;11.60;4.73;;;18.60;99.90;;;;;;5057076;28;20041;-68
2022/06/12 09:40:31;;;;;;;13.77;4.97;;;18.40;99.90;;;;;;5056072;28;20459;-71
2022/06/12 09:43:19;;;;;;;17.05;5.20;;;18.50;99.90;;;;;;5050911;28;20383;-71
2022/06/12 09:45:48;;;;;;;13.02;4.60;;;18.50;99.90;;;;;;5043802;28;20084;-72
2022/06/12 09:48:20;;;;;;;11.00;4.63;;;18.60;99.90;;;;;;5056926;28;20056;-70
2022/06/12 09:50:57;;;;;;;12.63;4.43;;;18.60;99.90;;;;;;5055980;28;20041;-71
2022/06/12 09:53:39;;;;;;;12.95;4.90;;;18.70;99.90;;;;;;5057023;28;20040;-71
2022/06/12 09:56:26;;;;;;;13.38;5.05;;;18.60;99.90;;;;;;5056572;28;20059;-72
2022/06/12 09:59:07;;;;;;;12.55;4.65;;;18.70;99.90;;;;;;5056723;28;20047;-69
2022/06/12 10:01:37;;;;;;;13.95;5.28;;;18.80;99.90;;;;;;5056507;28;20041;-70
2022/06/12 10:04:15;;;;;;;17.10;6.18;;;18.70;99.90;;;;;;5055835;28;20409;-69
2022/06/12 10:06:55;;;;;;;14.15;4.15;;;18.70;99.90;;;;;;5056293;28;20123;-69
2022/06/12 10:09:30;;;;;;;21.30;5.18;;;18.40;99.90;;;;;;5054687;28;20045;-69
2022/06/12 10:12:20;;;;;;;12.45;5.03;;;18.80;99.90;;;;;;5037966;28;20049;-70
2022/06/12 10:15:01;;;;;;;13.02;4.80;;;18.80;99.90;;;;;;5055974;28;20052;-70
2022/06/12 10:17:39;;;;;;;12.48;4.70;;;18.80;99.90;;;;;;5056500;28;20059;-71
2022/06/12 10:20:25;;;;;;;13.55;5.68;;;18.70;99.90;;;;;;5056191;28;20080;-70
2022/06/12 10:22:53;;;;;;;13.85;5.72;;;18.90;99.90;;;;;;5056026;28;20036;-72
2022/06/12 10:25:22;;;;;;;11.27;4.30;;;19.00;99.90;;;;;;5055109;28;20051;-69
2022/06/12 10:27:58;;;;;;;14.25;4.93;;;18.60;99.90;;;;;;5055401;28;20421;-70
2022/06/12 10:30:40;;;;;;;14.63;5.70;;;18.90;99.90;;;;;;5038685;28;20097;-70
2022/06/12 10:33:31;;;;;;;13.98;4.78;;;19.10;99.90;;;;;;5055986;28;20474;-71
2022/06/12 10:36:00;;;;;;;14.93;5.03;;;18.90;99.90;;;;;;5054438;28;20059;-70
2022/06/12 10:38:29;;;;;;;13.50;5.25;;;19.20;99.90;;;;;;5051261;28;20340;-70
2022/06/12 10:41:01;;;;;;;15.70;5.05;;;18.80;99.90;;;;;;5055743;28;20045;-72
2022/06/12 10:43:32;;;;;;;16.02;5.47;;;18.80;99.90;;;;;;5055663;28;20056;-70
2022/06/12 10:46:02;;;;;;;10.63;4.78;;;18.90;99.90;;;;;;5037781;28;20132;-71
2022/06/12 10:48:31;;;;;;;16.15;4.90;;;19.00;99.90;;;;;;5055425;28;20140;-72
2022/06/12 10:51:01;;;;;;;13.75;4.78;;;19.10;99.90;;;;;;5053887;28;20057;-70
2022/06/12 10:53:32;;;;;;;14.90;4.38;;;19.00;99.90;;;;;;5054818;28;20367;-73
2022/06/12 10:56:22;;;;;;;20.63;5.60;;;19.10;99.90;;;;;;5035331;28;20447;-72
2022/06/12 10:59:09;;;;;;;13.65;5.07;;;19.20;99.90;;;;;;5055341;28;20383;-72
2022/06/12 11:02:01;;;;;;;17.10;5.20;;;19.10;99.90;;;;;;5055263;28;20041;-71
2022/06/12 11:05:04;;;;;;;11.45;4.82;;;19.10;99.90;;;;;;5055198;28;20049;-70
2022/06/12 11:07:50;;;;;;;18.35;6.47;;;19.00;99.90;;;;;;5055127;28;20082;-71
2022/06/12 11:10:30;;;;;;;12.30;4.85;;;18.80;99.90;;;;;;5054843;28;20056;-70
2022/06/12 11:13:26;;;;;;;15.95;4.45;;;19.10;99.90;;;;;;5053934;28;20053;-71
2022/06/12 11:16:16;;;;;;;15.35;4.85;;;19.50;99.90;;;;;;5054666;28;20143;-71
2022/06/12 11:19:13;;;;;;;15.30;4.72;;;19.60;99.90;;;;;;5055081;28;20062;-72
2022/06/12 11:22:09;;;;;;;15.13;5.15;;;19.60;99.90;;;;;;5054401;28;20375;-72
2022/06/12 11:24:43;;;;;;;14.15;4.40;;;19.70;99.90;;;;;;5054816;28;20060;-71
2022/06/12 11:27:21;;;;;;;12.40;4.63;;;19.80;99.90;;;;;;5054980;28;20056;-71
2022/06/12 11:30:11;;;;;;;14.10;5.43;;;20.10;99.90;;;;;;5054010;28;20063;-71
2022/06/12 11:33:07;;;;;;;12.77;4.30;;;20.20;99.90;;;;;;5054697;28;20409;-71
2022/06/12 11:36:03;;;;;;;16.05;5.28;;;19.70;99.90;;;;;;5054922;28;20060;-72
2022/06/12 11:38:48;;;;;;;10.40;4.50;;;20.40;99.90;;;;;;5054210;28;20467;-71
2022/06/12 11:41:19;;;;;;;11.07;4.13;;;20.10;99.90;;;;;;5054680;28;20084;-70
2022/06/12 11:44:12;;;;;;;9.73;3.92;;;19.90;99.90;;;;;;5054615;28;20084;-72
2022/06/12 11:47:00;;;;;;;14.07;5.13;;;19.30;99.90;;;;;;5053676;28;20425;-71
2022/06/12 11:49:56;;;;;;;18.88;4.53;;;19.50;99.90;;;;;;5054165;28;20470;-70
2022/06/12 11:52:57;;;;;;;11.68;4.80;;;19.50;99.90;;;;;;5054513;28;20132;-73
2022/06/12 11:55:26;;;;;;;10.20;3.88;;;19.50;99.90;;;;;;5054667;28;20041;-73
2022/06/12 11:58:07;;;;;;;9.98;4.30;;;19.60;99.90;;;;;;5036860;28;20074;-70
2022/06/12 12:01:09;;;;;;;15.90;5.45;;;19.90;99.90;;;;;;5054471;28;20063;-71
2022/06/12 12:03:54;;;;;;;11.75;4.20;;;20.00;99.90;;;;;;5053625;28;20455;-73
2022/06/12 12:06:33;;;;;;;10.68;4.35;;;19.80;99.90;;;;;;5054662;28;20093;-72
2022/06/12 12:09:17;;;;;;;12.35;4.10;;;19.80;99.90;;;;;;5054075;28;20466;-70
2022/06/12 12:11:47;;;;;;;10.60;4.15;;;20.60;99.90;;;;;;5053906;28;20052;-71
2022/06/12 12:14:20;;;;;;;10.80;4.28;;;20.30;99.90;;;;;;5036285;28;20096;-71
2022/06/12 12:16:58;;;;;;;12.90;4.90;;;20.90;99.90;;;;;;5054399;28;20079;-70
2022/06/12 12:19:46;;;;;;;10.10;4.38;;;20.40;99.90;;;;;;5053510;28;20118;-70
2022/06/12 12:22:32;;;;;;;11.77;4.00;;;21.00;99.90;;;;;;5054282;28;20079;-71
2022/06/12 12:25:15;;;;;;;15.65;4.63;;;20.80;99.90;;;;;;5054331;28;20045;-72
2022/06/12 12:27:44;;;;;;;12.77;4.53;;;20.80;99.90;;;;;;5054286;28;20466;-73
2022/06/12 12:30:23;;;;;;;19.17;5.32;;;20.80;99.90;;;;;;5053983;28;20482;-72
2022/06/12 12:32:52;;;;;;;18.45;5.90;;;20.60;99.90;;;;;;5055220;28;20053;-72
2022/06/12 12:41:13;;;;;;;17.13;5.57;;;18.60;99.90;;;;;;5057504;28;20099;-72
2022/06/12 12:43:59;;;;;;;16.92;5.05;;;18.50;99.90;;;;;;5040590;28;20041;-70
2022/06/12 12:46:39;;;;;;;16.40;4.97;;;18.40;99.90;;;;;;5057877;28;20041;-73
2022/06/12 12:49:04;;;;;;;15.77;5.07;;;18.60;99.90;;;;;;5057685;28;20079;-71
2022/06/12 12:51:33;;;;;;;14.85;5.10;;;18.60;99.90;;;;;;5057551;28;20056;-70
2022/06/12 12:54:18;;;;;;;13.80;4.80;;;18.50;99.90;;;;;;5057056;28;20131;-73
2022/06/12 12:56:56;;;;;;;14.63;5.07;;;18.60;99.90;;;;;;5057699;28;20064;-71
2022/06/12 12:59:33;;;;;;;13.57;4.95;;;18.40;99.90;;;;;;5040859;28;20055;-71
2022/06/12 13:01:59;;;;;;;11.25;5.07;;;18.10;99.90;;;;;;5058471;28;20056;-72
2022/06/12 13:04:34;;;;;;;13.77;4.80;;;18.10;99.90;;;;;;5058170;28;20067;-74
2022/06/12 13:07:16;;;;;;;14.68;4.60;;;18.20;99.90;;;;;;5057532;28;20040;-72
2022/06/12 13:10:19;;;;;;;14.15;4.65;;;18.70;99.90;;;;;;5057303;28;20064;-71
2022/06/12 13:13:12;;;;;;;16.27;5.85;;;19.30;99.90;;;;;;5037426;28;20053;-72
2022/06/12 13:15:54;;;;;;;23.08;6.30;;;19.20;99.90;;;;;;5037169;28;20147;-71
2022/06/12 13:18:44;;;;;;;12.70;5.68;;;19.40;99.90;;;;;;5037309;28;20110;-71
2022/06/12 13:22:00;;;;;;;17.55;6.60;;;19.00;99.90;;;;;;5037205;28;20042;-71
2022/06/12 13:24:36;;;;;;;15.98;6.65;;;18.20;99.90;;;;;;5011548;28;20058;-72
2022/06/12 13:27:18;;;;;;;17.45;6.78;;;18.00;99.90;;;;;;5036838;28;20053;-72
2022/06/12 13:29:45;;;;;;;19.52;6.57;;;17.90;99.90;;;;;;5056818;28;20055;-70
2022/06/12 13:32:19;;;;;;;17.65;6.90;;;17.90;99.90;;;;;;5056736;28;20048;-72
2022/06/12 13:34:57;;;;;;;16.80;7.18;;;18.60;99.90;;;;;;5056931;28;20079;-71